Time;durP1;ratioP1;P1;durP2;ratioP2;P2;SDS_P1;SDS_P2;PMS_P1;PMS_P2;Temp;Humidity;BMP_temperature;BMP_pressure;BME280_temperature;BME280_humidity;BME280_pressure;Samples;Min_cycle;Max_cycle;Signal;HPM_P1;HPM_P2
2023/05/29 00:00:44;;;;;;;3.03;2.85;;;21.00;69.00;;;;;;5052317;28;20045;-78
2023/05/29 00:03:10;;;;;;;3.28;3.08;;;21.00;69.10;;;;;;5051005;28;20417;-78
2023/05/29 00:05:36;;;;;;;3.10;2.90;;;21.00;69.20;;;;;;5050381;28;20033;-78
2023/05/29 00:08:01;;;;;;;3.22;3.03;;;21.00;69.10;;;;;;5039948;28;20059;-78
2023/05/29 00:10:27;;;;;;;3.28;3.08;;;21.00;69.20;;;;;;5069173;28;20103;-78
2023/05/29 00:12:52;;;;;;;2.85;2.65;;;21.00;69.10;;;;;;5044591;28;20048;-78
2023/05/29 00:15:18;;;;;;;3.25;3.05;;;21.00;69.20;;;;;;5050062;28;20044;-78
2023/05/29 00:17:44;;;;;;;3.33;3.13;;;21.00;69.10;;;;;;5042005;28;20386;-78
2023/05/29 00:20:14;;;;;;;2.83;2.72;;;20.90;69.00;;;;;;5041986;28;20583;-78
2023/05/29 00:22:39;;;;;;;3.03;2.92;;;20.90;69.00;;;;;;5036418;28;20041;-78
2023/05/29 00:25:05;;;;;;;2.70;2.60;;;21.00;69.10;;;;;;5047181;28;20045;-78
2023/05/29 00:27:32;;;;;;;2.88;2.67;;;20.90;69.00;;;;;;5033630;28;20132;-78
2023/05/29 00:29:58;;;;;;;2.97;2.78;;;21.00;69.00;;;;;;5037907;28;20043;-78
2023/05/29 00:32:24;;;;;;;2.70;2.60;;;21.00;69.00;;;;;;5047241;28;20041;-78
2023/05/29 00:34:50;;;;;;;2.80;2.60;;;21.00;69.10;;;;;;5054689;28;20045;-78
2023/05/29 00:37:15;;;;;;;2.63;2.53;;;21.00;69.10;;;;;;5050511;28;20052;-78
2023/05/29 00:39:41;;;;;;;3.17;2.97;;;21.00;69.00;;;;;;5049895;28;20045;-78
2023/05/29 00:42:07;;;;;;;2.65;2.53;;;21.00;69.00;;;;;;5046676;28;20068;-78
2023/05/29 00:44:32;;;;;;;3.40;3.10;;;21.00;69.00;;;;;;5049765;28;20102;-78
2023/05/29 00:46:58;;;;;;;2.85;2.75;;;20.90;69.00;;;;;;5051734;28;20115;-78
2023/05/29 00:49:24;;;;;;;3.10;2.90;;;21.00;69.00;;;;;;5056356;28;20051;-78
2023/05/29 00:51:50;;;;;;;3.15;2.85;;;21.00;69.00;;;;;;5038395;28;20127;-78
2023/05/29 00:54:20;;;;;;;2.65;2.55;;;20.90;68.90;;;;;;5048802;28;20040;-78
2023/05/29 00:56:46;;;;;;;2.35;2.25;;;20.90;68.90;;;;;;5052920;28;20554;-78
2023/05/29 00:59:11;;;;;;;2.83;2.63;;;20.90;68.90;;;;;;5049643;28;20174;-78
2023/05/29 01:01:37;;;;;;;2.65;2.55;;;20.90;69.70;;;;;;5022992;28;20052;-78
2023/05/29 01:04:06;;;;;;;3.13;2.92;;;20.90;68.90;;;;;;5035293;28;20486;-78
2023/05/29 01:06:35;;;;;;;2.45;2.35;;;20.90;68.90;;;;;;5047911;28;20030;-78
2023/05/29 01:09:00;;;;;;;3.15;2.75;;;20.90;68.90;;;;;;5051843;28;20028;-79
2023/05/29 01:11:44;;;;;;;2.95;2.75;;;20.90;69.00;;;;;;5049807;28;20813;-78
2023/05/29 01:14:13;;;;;;;2.95;2.75;;;20.90;69.00;;;;;;5047880;28;20503;-79
2023/05/29 01:16:45;;;;;;;2.50;2.30;;;20.90;68.90;;;;;;5027596;28;20060;-78
2023/05/29 01:19:44;;;;;;;2.10;2.00;;;20.90;68.90;;;;;;5053895;28;20075;-78
2023/05/29 01:22:34;;;;;;;2.30;2.20;;;20.90;68.90;;;;;;4982483;28;20034;-79
2023/05/29 01:25:33;;;;;;;2.33;2.22;;;20.90;68.90;;;;;;4969946;28;20030;-78
2023/05/29 01:28:00;;;;;;;2.00;1.90;;;20.90;68.90;;;;;;4966472;28;20043;-79
2023/05/29 01:30:26;;;;;;;2.60;2.40;;;20.90;68.80;;;;;;4945423;28;20046;-78
2023/05/29 01:32:51;;;;;;;2.50;2.40;;;20.90;68.90;;;;;;4943048;28;20452;-78
2023/05/29 01:35:17;;;;;;;2.33;2.22;;;20.90;69.00;;;;;;4940370;28;20039;-78
2023/05/29 01:37:42;;;;;;;2.30;2.20;;;20.90;69.00;;;;;;4959506;28;20109;-78
2023/05/29 01:40:08;;;;;;;2.10;2.00;;;20.90;69.00;;;;;;4954775;28;20043;-78
2023/05/29 01:42:34;;;;;;;2.35;2.25;;;20.90;69.00;;;;;;4936524;28;20042;-78
2023/05/29 01:45:00;;;;;;;2.70;2.47;;;20.90;69.10;;;;;;4962288;28;20055;-78
2023/05/29 01:47:26;;;;;;;2.30;2.20;;;20.90;69.00;;;;;;4973022;28;20052;-78
2023/05/29 01:49:52;;;;;;;2.55;2.45;;;20.90;69.00;;;;;;4972517;28;20161;-78
2023/05/29 01:52:17;;;;;;;2.50;2.35;;;20.90;68.90;;;;;;4950621;28;20130;-78
2023/05/29 01:54:44;;;;;;;2.42;2.17;;;20.90;69.00;;;;;;4944334;28;20097;-78
2023/05/29 01:57:10;;;;;;;2.25;2.15;;;20.90;69.00;;;;;;4948814;28;20031;-78
2023/05/29 01:59:35;;;;;;;2.47;2.38;;;20.90;69.00;;;;;;4993660;28;20030;-78
2023/05/29 02:02:11;;;;;;;2.45;2.28;;;20.90;69.00;;;;;;4989566;28;20032;-78
2023/05/29 02:04:37;;;;;;;2.60;2.40;;;20.90;69.00;;;;;;5028267;28;20047;-78
2023/05/29 02:07:03;;;;;;;3.22;3.00;;;20.90;69.00;;;;;;5053139;28;20037;-78
2023/05/29 02:09:30;;;;;;;2.30;2.20;;;20.90;68.90;;;;;;5036616;28;20560;-78
2023/05/29 02:11:56;;;;;;;2.45;2.35;;;20.90;68.90;;;;;;5054322;28;20029;-78
2023/05/29 02:14:24;;;;;;;2.17;2.08;;;20.90;68.80;;;;;;5053920;28;20060;-78
2023/05/29 02:16:51;;;;;;;2.40;2.30;;;20.90;68.80;;;;;;5057374;28;20037;-78
2023/05/29 02:19:19;;;;;;;2.28;2.17;;;20.90;68.90;;;;;;5051914;28;20041;-78
2023/05/29 02:21:46;;;;;;;2.55;2.40;;;20.90;68.90;;;;;;5052691;28;20491;-78
2023/05/29 02:24:12;;;;;;;2.58;2.38;;;20.90;68.90;;;;;;5049297;28;20123;-78
2023/05/29 02:26:37;;;;;;;2.20;2.10;;;20.90;68.90;;;;;;5049766;28;20499;-78
2023/05/29 02:29:06;;;;;;;2.63;2.50;;;20.90;68.90;;;;;;5050829;28;20095;-78
2023/05/29 02:31:32;;;;;;;2.60;2.40;;;20.90;68.90;;;;;;5051231;28;20033;-78
2023/05/29 02:33:57;;;;;;;2.17;2.08;;;20.90;68.80;;;;;;5049685;28;20037;-78
2023/05/29 02:36:23;;;;;;;2.30;2.20;;;20.90;68.80;;;;;;5053753;28;20515;-78
2023/05/29 02:38:48;;;;;;;2.30;2.20;;;20.90;68.80;;;;;;5053940;28;20037;-78
2023/05/29 02:41:14;;;;;;;2.40;2.30;;;20.90;68.80;;;;;;5052146;28;20076;-78
2023/05/29 02:43:39;;;;;;;2.30;2.20;;;20.90;68.90;;;;;;5057138;28;20040;-78
2023/05/29 02:46:05;;;;;;;1.85;1.75;;;20.90;68.80;;;;;;5049392;28;20086;-78
2023/05/29 02:48:31;;;;;;;2.17;2.05;;;20.90;68.90;;;;;;5051220;28;20044;-78
2023/05/29 02:50:56;;;;;;;2.13;2.03;;;20.90;68.90;;;;;;5040410;28;20414;-78
2023/05/29 02:53:22;;;;;;;2.22;2.13;;;20.90;68.90;;;;;;5051394;28;20045;-78
2023/05/29 02:55:48;;;;;;;2.40;2.30;;;20.90;68.90;;;;;;5054962;28;20143;-78
2023/05/29 02:58:16;;;;;;;2.20;1.80;;;20.90;68.80;;;;;;5055209;28;20047;-78
2023/05/29 03:00:41;;;;;;;2.78;2.42;;;20.90;68.80;;;;;;5053696;28;20083;-78
2023/05/29 03:03:07;;;;;;;2.08;1.98;;;20.90;68.80;;;;;;5051321;28;20167;-78
2023/05/29 03:05:32;;;;;;;2.20;2.10;;;20.90;68.70;;;;;;5054542;28;20047;-78
2023/05/29 03:07:58;;;;;;;2.00;1.90;;;20.90;68.80;;;;;;5053821;28;20049;-78
2023/05/29 03:10:23;;;;;;;2.05;1.95;;;20.90;68.70;;;;;;5054921;28;20036;-78
2023/05/29 03:12:49;;;;;;;2.03;1.92;;;20.90;68.70;;;;;;5054813;28;20051;-78
2023/05/29 03:15:15;;;;;;;2.20;2.10;;;20.80;68.60;;;;;;5039232;28;20056;-78
2023/05/29 03:17:40;;;;;;;2.55;2.40;;;20.80;68.60;;;;;;5050267;28;20050;-78
2023/05/29 03:20:07;;;;;;;2.10;2.00;;;20.90;68.70;;;;;;5035917;28;20026;-78
2023/05/29 03:22:36;;;;;;;1.92;1.83;;;20.90;68.80;;;;;;5042637;28;20121;-78
2023/05/29 03:25:02;;;;;;;2.00;1.90;;;20.80;68.90;;;;;;5051032;28;20053;-78
2023/05/29 03:27:29;;;;;;;2.10;2.00;;;20.90;68.80;;;;;;5055975;28;20071;-78
2023/05/29 03:29:55;;;;;;;2.22;2.13;;;20.90;68.90;;;;;;5053405;28;20037;-78
2023/05/29 03:32:20;;;;;;;2.15;2.05;;;20.90;69.00;;;;;;5048938;28;20043;-78
2023/05/29 03:34:47;;;;;;;2.00;1.90;;;20.90;68.90;;;;;;5053659;28;20032;-78
2023/05/29 03:37:13;;;;;;;2.60;2.00;;;20.90;68.90;;;;;;5053448;28;20131;-78
2023/05/29 03:39:38;;;;;;;2.17;2.08;;;20.90;69.70;;;;;;5052426;28;20628;-78
2023/05/29 03:42:04;;;;;;;2.03;1.92;;;20.90;68.80;;;;;;5048916;28;20528;-78
2023/05/29 03:44:30;;;;;;;3.42;2.05;;;20.90;68.90;;;;;;5048606;28;20045;-78
2023/05/29 03:46:55;;;;;;;1.98;1.88;;;20.90;68.90;;;;;;5051506;28;20047;-78
2023/05/29 03:49:21;;;;;;;1.92;1.80;;;20.90;68.90;;;;;;5054078;28;20045;-78
2023/05/29 03:51:46;;;;;;;2.47;2.13;;;20.80;68.90;;;;;;5055761;28;20541;-78
2023/05/29 03:54:12;;;;;;;2.33;2.22;;;20.90;68.90;;;;;;5048396;28;20173;-78
2023/05/29 03:56:37;;;;;;;2.33;2.13;;;20.90;68.90;;;;;;5052510;28;20065;-78
2023/05/29 03:59:03;;;;;;;2.22;2.13;;;20.90;68.80;;;;;;5054143;28;20560;-78
2023/05/29 04:01:28;;;;;;;2.72;2.20;;;20.80;68.70;;;;;;5051352;28;20060;-78
2023/05/29 04:03:54;;;;;;;2.25;2.05;;;20.80;68.90;;;;;;5052184;28;20037;-78
2023/05/29 04:06:20;;;;;;;2.08;1.98;;;20.80;68.90;;;;;;5032143;28;20084;-78
2023/05/29 04:08:45;;;;;;;2.13;2.03;;;20.80;68.90;;;;;;5045348;28;20533;-78
2023/05/29 04:11:11;;;;;;;2.42;2.33;;;20.80;68.80;;;;;;5052518;28;20082;-78
2023/05/29 04:13:37;;;;;;;2.15;2.05;;;20.80;68.70;;;;;;5040071;28;20052;-77
2023/05/29 04:16:03;;;;;;;2.17;2.08;;;20.80;68.60;;;;;;5054764;28;20395;-78
2023/05/29 04:18:29;;;;;;;1.98;1.88;;;20.80;68.60;;;;;;5045497;28;20060;-78
2023/05/29 04:20:54;;;;;;;2.42;2.33;;;20.80;68.60;;;;;;5048570;28;20033;-78
2023/05/29 04:23:20;;;;;;;1.95;1.85;;;20.80;68.50;;;;;;5054933;28;20043;-76
2023/05/29 04:25:46;;;;;;;2.03;1.92;;;20.80;68.40;;;;;;5054040;28;20044;-78
2023/05/29 04:28:12;;;;;;;2.30;2.10;;;20.80;68.40;;;;;;5048600;28;20551;-78
2023/05/29 04:30:38;;;;;;;2.28;2.17;;;20.80;68.60;;;;;;5052736;28;20044;-78
2023/05/29 04:33:04;;;;;;;2.58;2.47;;;20.80;68.60;;;;;;5048316;28;20037;-78
2023/05/29 04:35:30;;;;;;;2.15;2.05;;;20.80;68.60;;;;;;5038234;28;20051;-78
2023/05/29 04:37:56;;;;;;;2.20;2.10;;;20.80;68.60;;;;;;5026795;28;20036;-78
2023/05/29 04:40:21;;;;;;;2.47;2.28;;;20.80;68.70;;;;;;5049532;28;20067;-78
2023/05/29 04:42:47;;;;;;;2.30;2.20;;;20.80;68.70;;;;;;5052513;28;20163;-78
2023/05/29 04:45:13;;;;;;;1.90;1.80;;;20.80;68.60;;;;;;5047883;28;20044;-78
2023/05/29 04:47:43;;;;;;;2.22;2.13;;;20.80;68.40;;;;;;5051033;28;20040;-77
2023/05/29 04:50:12;;;;;;;2.38;2.28;;;20.80;68.50;;;;;;5053267;28;20055;-78
2023/05/29 04:52:38;;;;;;;2.95;2.63;;;20.80;68.10;;;;;;5048279;28;20052;-77
2023/05/29 04:55:05;;;;;;;3.35;3.05;;;20.70;65.40;;;;;;5052025;28;20279;-76
2023/05/29 04:57:30;;;;;;;4.45;3.42;;;20.60;64.00;;;;;;5048613;28;20051;-77
2023/05/29 04:59:56;;;;;;;3.72;3.28;;;20.50;62.60;;;;;;5052138;28;20037;-77
2023/05/29 05:02:22;;;;;;;4.07;3.20;;;20.30;62.30;;;;;;5045980;28;20426;-77
2023/05/29 05:04:47;;;;;;;5.20;3.78;;;20.30;61.70;;;;;;5052976;28;20080;-77
2023/05/29 05:07:15;;;;;;;3.85;3.45;;;20.20;61.40;;;;;;5035050;28;20041;-77
2023/05/29 05:09:41;;;;;;;4.88;3.78;;;20.10;61.50;;;;;;5044424;28;20041;-77
2023/05/29 05:12:07;;;;;;;9.80;3.83;;;20.00;61.50;;;;;;5042820;28;20260;-77
2023/05/29 05:14:32;;;;;;;6.60;3.65;;;20.00;61.40;;;;;;5044195;28;20030;-77
2023/05/29 05:16:58;;;;;;;5.05;3.88;;;20.00;61.80;;;;;;5044830;28;20033;-77
2023/05/29 05:19:23;;;;;;;4.93;3.90;;;20.00;61.80;;;;;;5049908;28;20178;-77
2023/05/29 05:21:49;;;;;;;4.13;3.58;;;19.90;61.90;;;;;;5047529;28;20565;-77
2023/05/29 05:24:15;;;;;;;4.32;3.92;;;19.80;61.80;;;;;;5048222;28;20048;-78
2023/05/29 05:26:40;;;;;;;5.13;4.20;;;19.90;62.00;;;;;;5069080;28;20085;-77
2023/05/29 05:29:06;;;;;;;5.45;4.10;;;19.80;61.80;;;;;;5047075;28;20581;-76
2023/05/29 05:31:31;;;;;;;4.97;4.00;;;19.80;62.10;;;;;;5046368;28;20040;-77
2023/05/29 05:33:57;;;;;;;7.53;4.28;;;19.80;62.40;;;;;;5045373;28;20523;-77
2023/05/29 05:36:23;;;;;;;4.82;4.35;;;19.80;62.10;;;;;;5050950;28;20037;-77
2023/05/29 05:38:48;;;;;;;6.15;4.15;;;19.70;62.10;;;;;;5049338;28;20041;-77
2023/05/29 05:41:14;;;;;;;6.07;3.95;;;19.80;62.30;;;;;;5046491;28;20111;-77
2023/05/29 05:43:40;;;;;;;6.78;4.18;;;19.60;62.30;;;;;;5052534;28;20066;-76
2023/05/29 05:46:05;;;;;;;6.18;4.35;;;19.70;62.60;;;;;;5051500;28;20524;-76
2023/05/29 05:48:31;;;;;;;4.82;3.90;;;19.60;62.50;;;;;;5049419;28;20478;-77
2023/05/29 05:50:57;;;;;;;4.35;3.60;;;19.60;62.50;;;;;;5051509;28;20033;-77
2023/05/29 05:53:22;;;;;;;6.22;4.05;;;19.60;62.60;;;;;;5051321;28;20059;-77
2023/05/29 05:55:48;;;;;;;5.40;3.83;;;19.60;62.70;;;;;;5053994;28;20170;-77
2023/05/29 05:58:13;;;;;;;3.83;3.40;;;19.50;62.90;;;;;;5035684;28;20461;-78
2023/05/29 06:00:40;;;;;;;5.43;4.13;;;19.50;62.90;;;;;;5050645;28;20057;-77
2023/05/29 06:03:05;;;;;;;3.97;3.58;;;19.50;63.00;;;;;;5034210;28;20052;-77
2023/05/29 06:05:31;;;;;;;3.53;3.22;;;19.50;63.20;;;;;;5050348;28;20045;-77
2023/05/29 06:07:57;;;;;;;4.50;3.80;;;19.50;63.30;;;;;;5036214;28;20041;-76
2023/05/29 06:10:22;;;;;;;5.28;4.03;;;19.50;63.40;;;;;;5046997;28;20052;-77
2023/05/29 06:12:48;;;;;;;4.05;3.42;;;19.50;63.40;;;;;;5049359;28;20056;-77
2023/05/29 06:15:14;;;;;;;5.53;3.67;;;19.40;63.60;;;;;;5050986;28;20041;-78
2023/05/29 06:17:39;;;;;;;4.68;3.22;;;19.40;63.70;;;;;;5049180;28;20257;-77
2023/05/29 06:20:14;;;;;;;5.22;3.40;;;19.40;63.50;;;;;;5054695;28;20498;-77
2023/05/29 06:22:40;;;;;;;4.00;3.60;;;19.50;63.50;;;;;;5052312;28;20502;-78
2023/05/29 06:25:06;;;;;;;3.78;3.28;;;19.50;63.20;;;;;;5037838;28;20051;-77
2023/05/29 06:27:31;;;;;;;3.95;2.97;;;19.40;63.30;;;;;;5043346;28;20045;-77
2023/05/29 06:29:57;;;;;;;3.83;2.70;;;19.50;63.60;;;;;;5049579;28;20037;-78
2023/05/29 06:32:22;;;;;;;5.95;3.33;;;19.50;63.20;;;;;;5052139;28;20132;-76
2023/05/29 06:34:48;;;;;;;6.20;2.95;;;19.20;63.60;;;;;;5054294;28;20086;-77
2023/05/29 06:37:14;;;;;;;5.75;3.50;;;19.00;64.80;;;;;;5055271;28;20481;-76
2023/05/29 06:39:41;;;;;;;3.60;2.90;;;18.90;65.00;;;;;;5051532;28;20037;-78
2023/05/29 06:42:07;;;;;;;3.38;2.80;;;18.80;65.50;;;;;;5050793;28;20044;-78
2023/05/29 06:44:33;;;;;;;4.28;3.08;;;18.80;65.70;;;;;;5033935;28;20056;-79
2023/05/29 06:46:59;;;;;;;3.78;2.88;;;18.70;66.10;;;;;;5052263;28;20495;-79
2023/05/29 06:49:24;;;;;;;5.10;3.03;;;18.60;66.10;;;;;;5055246;28;20045;-80
2023/05/29 06:51:50;;;;;;;4.95;3.10;;;18.50;67.00;;;;;;5040052;28;20155;-79
2023/05/29 06:54:16;;;;;;;6.00;3.63;;;18.50;66.40;;;;;;5037043;28;20081;-79
2023/05/29 06:56:41;;;;;;;3.55;3.13;;;18.40;66.00;;;;;;5051029;28;20037;-79
2023/05/29 06:59:07;;;;;;;6.05;3.45;;;18.40;66.10;;;;;;5051264;28;20048;-79
2023/05/29 07:01:32;;;;;;;4.40;3.40;;;18.40;66.30;;;;;;5040346;28;20038;-77
2023/05/29 07:03:58;;;;;;;4.80;2.83;;;18.60;66.30;;;;;;5050652;28;20546;-77
2023/05/29 07:06:23;;;;;;;5.97;3.40;;;18.60;66.80;;;;;;5049270;28;20414;-77
2023/05/29 07:08:49;;;;;;;3.53;3.10;;;18.70;66.50;;;;;;5058175;28;20094;-78
2023/05/29 07:11:15;;;;;;;6.53;3.17;;;18.70;66.20;;;;;;5040185;28;20509;-78
2023/05/29 07:13:40;;;;;;;5.65;3.53;;;18.80;66.00;;;;;;5043461;28;20052;-78
2023/05/29 07:16:06;;;;;;;5.40;3.17;;;18.70;66.30;;;;;;5044574;28;20038;-78
2023/05/29 07:18:32;;;;;;;6.25;3.15;;;18.70;66.00;;;;;;5050884;28;20053;-81
2023/05/29 07:20:59;;;;;;;4.18;2.80;;;18.70;66.20;;;;;;5049831;28;20503;-84
2023/05/29 07:23:25;;;;;;;6.35;3.05;;;18.70;66.20;;;;;;5048087;28;20394;-80
2023/05/29 07:25:51;;;;;;;6.38;3.42;;;18.70;66.50;;;;;;5056344;28;20040;-77
2023/05/29 07:28:16;;;;;;;4.28;3.05;;;18.70;66.70;;;;;;5052873;28;20144;-76
2023/05/29 07:30:42;;;;;;;3.28;2.97;;;18.80;66.40;;;;;;5048850;28;20036;-76
2023/05/29 07:33:07;;;;;;;4.22;3.08;;;18.80;65.90;;;;;;4699720;28;10000273;-76
2023/05/29 07:35:33;;;;;;;5.88;3.50;;;18.80;66.20;;;;;;5030268;28;20041;-77
2023/05/29 07:37:59;;;;;;;5.57;3.00;;;18.80;67.10;;;;;;5035114;28;20523;-76
2023/05/29 07:40:25;;;;;;;4.18;3.15;;;18.80;66.20;;;;;;5030247;28;20414;-78
2023/05/29 07:42:50;;;;;;;5.07;3.50;;;18.70;66.20;;;;;;5032224;28;20033;-77
2023/05/29 07:45:16;;;;;;;4.93;3.53;;;18.90;66.30;;;;;;5034177;28;20128;-79
2023/05/29 07:47:42;;;;;;;5.57;3.10;;;18.80;66.50;;;;;;5046449;28;20052;-76
2023/05/29 07:50:08;;;;;;;4.20;3.03;;;18.80;67.10;;;;;;5037291;28;20383;-77
2023/05/29 07:52:33;;;;;;;3.53;3.15;;;18.80;67.00;;;;;;5052038;28;20036;-78
2023/05/29 07:55:01;;;;;;;5.38;3.05;;;18.80;66.50;;;;;;5036168;28;20040;-78
2023/05/29 07:57:37;;;;;;;6.39;3.17;;;18.80;66.50;;;;;;5007359;28;10001233;-78
2023/05/29 08:00:08;;;;;;;5.43;3.72;;;18.90;66.40;;;;;;5028354;28;20261;-77
2023/05/29 08:02:36;;;;;;;3.85;2.80;;;19.00;66.20;;;;;;5027437;28;20064;-78
2023/05/29 08:05:02;;;;;;;3.95;2.92;;;19.10;65.90;;;;;;5049557;28;20052;-78
2023/05/29 08:07:28;;;;;;;2.80;2.58;;;19.10;65.90;;;;;;5051262;28;20033;-79
2023/05/29 08:09:54;;;;;;;4.32;3.20;;;19.20;66.10;;;;;;5047682;28;20040;-78
2023/05/29 08:12:20;;;;;;;5.00;3.65;;;19.30;65.70;;;;;;5050330;28;20418;-76
2023/05/29 08:14:45;;;;;;;5.30;3.08;;;19.30;65.90;;;;;;5043351;28;20509;-77
2023/05/29 08:17:11;;;;;;;3.88;2.90;;;19.30;65.50;;;;;;5029952;28;20044;-77
2023/05/29 08:19:37;;;;;;;3.58;3.00;;;19.40;65.30;;;;;;5040060;28;20107;-77
2023/05/29 08:22:02;;;;;;;3.75;3.13;;;19.40;66.40;;;;;;5045972;28;20025;-77
2023/05/29 08:24:28;;;;;;;4.35;3.13;;;19.40;65.60;;;;;;5042915;28;20080;-77
2023/05/29 08:26:54;;;;;;;3.72;2.70;;;19.40;65.50;;;;;;5045998;28;20111;-77
2023/05/29 08:29:19;;;;;;;4.75;3.35;;;19.50;65.60;;;;;;5050244;28;20049;-77
2023/05/29 08:31:45;;;;;;;9.65;3.45;;;19.50;65.90;;;;;;5045391;28;20790;-77
2023/05/29 08:34:11;;;;;;;3.40;3.08;;;19.50;66.20;;;;;;5035525;28;20519;-77
2023/05/29 08:36:37;;;;;;;4.05;3.40;;;19.50;65.90;;;;;;5049246;28;20120;-77
2023/05/29 08:39:02;;;;;;;6.28;3.30;;;19.50;66.00;;;;;;5045167;28;20047;-78
2023/05/29 08:41:42;;;;;;;4.22;3.35;;;19.50;66.10;;;;;;5032695;28;20149;-77
2023/05/29 08:44:07;;;;;;;3.83;3.28;;;19.50;66.30;;;;;;5030201;28;20037;-76
2023/05/29 08:46:33;;;;;;;3.42;3.00;;;19.60;66.60;;;;;;5051947;28;20048;-77
2023/05/29 08:48:59;;;;;;;6.43;3.38;;;19.60;66.30;;;;;;5062927;28;20116;-78
2023/05/29 08:51:29;;;;;;;7.28;3.85;;;19.60;66.40;;;;;;5046317;28;20570;-78
2023/05/29 08:53:55;;;;;;;3.88;3.58;;;19.70;66.30;;;;;;4685519;28;9999885;-79
2023/05/29 08:56:22;;;;;;;6.47;3.75;;;19.70;66.40;;;;;;5021406;28;20030;-77
2023/05/29 08:58:47;;;;;;;3.72;3.28;;;19.60;66.50;;;;;;5051847;28;20055;-77
2023/05/29 09:01:13;;;;;;;4.28;3.20;;;19.70;66.30;;;;;;5048179;28;20041;-77
2023/05/29 09:03:38;;;;;;;5.45;3.10;;;19.70;66.30;;;;;;5048896;28;20478;-76
2023/05/29 09:06:04;;;;;;;4.95;3.15;;;19.70;66.60;;;;;;5046858;28;20036;-77
2023/05/29 09:08:30;;;;;;;4.20;3.25;;;19.80;66.80;;;;;;5009204;28;20079;-76
2023/05/29 09:10:56;;;;;;;4.65;3.03;;;19.80;67.10;;;;;;5054559;28;20106;-77
2023/05/29 09:13:22;;;;;;;5.43;3.45;;;19.80;67.00;;;;;;5028975;28;20148;-77
2023/05/29 09:15:48;;;;;;;4.78;3.97;;;19.80;67.10;;;;;;5046725;28;20591;-76
2023/05/29 09:18:16;;;;;;;5.40;3.13;;;19.90;67.20;;;;;;5032699;28;20063;-76
2023/05/29 09:20:42;;;;;;;4.88;3.72;;;19.90;66.90;;;;;;5049783;28;20094;-77
2023/05/29 09:23:08;;;;;;;7.13;3.55;;;19.90;67.20;;;;;;5043390;28;20045;-77
2023/05/29 09:25:36;;;;;;;4.55;3.65;;;19.90;67.60;;;;;;5043590;28;20050;-78
2023/05/29 09:28:03;;;;;;;4.45;3.30;;;19.90;67.60;;;;;;5029556;28;20043;-79
2023/05/29 09:30:38;;;;;;;5.43;3.65;;;20.00;67.60;;;;;;5047781;28;20052;-78
2023/05/29 09:33:05;;;;;;;3.65;3.15;;;20.00;67.50;;;;;;5048659;28;20280;-78
2023/05/29 09:35:47;;;;;;;4.05;3.20;;;20.00;67.80;;;;;;5034424;28;20040;-80
2023/05/29 09:38:13;;;;;;;5.95;3.50;;;20.00;68.00;;;;;;5041898;28;20048;-78
2023/05/29 09:40:40;;;;;;;4.13;2.95;;;20.10;68.30;;;;;;5050862;28;20139;-80
2023/05/29 09:43:19;;;;;;;4.18;3.20;;;20.10;67.60;;;;;;5048317;28;20518;-77
2023/05/29 09:45:46;;;;;;;3.90;3.20;;;20.10;67.60;;;;;;5044090;28;20071;-75
2023/05/29 09:48:32;;;;;;;5.97;3.33;;;20.10;67.60;;;;;;5035177;28;20037;-77
2023/05/29 09:51:01;;;;;;;4.38;3.35;;;20.20;67.80;;;;;;5026934;28;20055;-78
2023/05/29 09:53:28;;;;;;;5.93;3.45;;;20.20;67.80;;;;;;5050454;28;20033;-77
2023/05/29 09:55:55;;;;;;;3.30;3.00;;;20.20;67.60;;;;;;5051399;28;20045;-78
2023/05/29 09:58:21;;;;;;;3.47;2.83;;;20.30;67.70;;;;;;5014821;28;20485;-78
2023/05/29 10:00:48;;;;;;;3.28;2.95;;;20.30;67.50;;;;;;5048841;28;20130;-76
2023/05/29 10:03:14;;;;;;;4.20;3.78;;;20.30;67.50;;;;;;5049447;28;20056;-75
2023/05/29 10:05:40;;;;;;;4.35;3.72;;;20.30;67.20;;;;;;5052258;28;20049;-76
2023/05/29 10:08:10;;;;;;;6.32;3.80;;;20.30;67.10;;;;;;5052546;28;20589;-75
2023/05/29 10:10:36;;;;;;;4.82;3.38;;;20.40;66.90;;;;;;5042937;28;20052;-76
2023/05/29 10:13:03;;;;;;;9.05;5.18;;;20.40;66.80;;;;;;5029251;28;20051;-75
2023/05/29 10:15:30;;;;;;;13.60;6.63;;;20.40;66.90;;;;;;5052399;28;20044;-78
2023/05/29 10:18:04;;;;;;;14.60;6.60;;;20.40;67.20;;;;;;5026473;28;20118;-78
2023/05/29 10:20:30;;;;;;;9.88;5.60;;;20.40;67.20;;;;;;5036490;28;20446;-78
2023/05/29 10:22:56;;;;;;;9.15;5.10;;;20.40;66.90;;;;;;5038252;28;20087;-78
2023/05/29 10:25:22;;;;;;;8.20;5.00;;;20.40;66.90;;;;;;5034500;28;20076;-77
2023/05/29 10:27:48;;;;;;;8.90;4.82;;;20.50;66.70;;;;;;5019028;28;20131;-80
2023/05/29 10:30:47;;;;;;;8.00;4.28;;;20.60;66.50;;;;;;4698822;28;10000819;-78
2023/05/29 10:33:12;;;;;;;8.93;4.80;;;20.60;66.60;;;;;;5046674;28;20137;-79
2023/05/29 10:36:04;;;;;;;7.10;4.20;;;20.60;66.70;;;;;;5045314;28;20167;-80
2023/05/29 10:38:30;;;;;;;7.13;4.40;;;20.60;66.50;;;;;;5033298;28;20456;-79
2023/05/29 10:40:59;;;;;;;5.70;4.03;;;20.60;66.50;;;;;;5037016;28;20041;-79
2023/05/29 10:43:27;;;;;;;4.45;4.00;;;20.60;66.10;;;;;;5046142;28;20098;-79
2023/05/29 10:45:53;;;;;;;4.47;3.92;;;20.60;66.10;;;;;;5024769;28;20457;-81
2023/05/29 10:48:18;;;;;;;5.13;3.95;;;20.60;66.10;;;;;;5036817;28;20053;-81
2023/05/29 10:50:47;;;;;;;3.85;3.50;;;20.60;66.10;;;;;;5024797;28;20569;-81
2023/05/29 10:53:17;;;;;;;6.82;4.25;;;20.70;66.00;;;;;;5008045;28;20144;-79
2023/05/29 10:55:43;;;;;;;5.13;4.13;;;20.70;65.90;;;;;;5008432;28;20497;-79
2023/05/29 10:58:12;;;;;;;11.10;4.15;;;20.80;66.40;;;;;;5039108;28;20506;-83
2023/05/29 11:00:42;;;;;;;4.45;3.72;;;20.80;66.30;;;;;;5041580;28;20049;-78
2023/05/29 11:03:08;;;;;;;6.25;4.30;;;20.90;66.30;;;;;;5039406;28;20044;-80
2023/05/29 11:05:34;;;;;;;4.40;4.00;;;20.90;66.30;;;;;;5038251;28;20091;-80
2023/05/29 11:08:02;;;;;;;4.80;4.10;;;20.90;66.50;;;;;;5025511;28;20414;-79
2023/05/29 11:10:46;;;;;;;3.88;3.53;;;20.90;66.50;;;;;;5009451;28;20448;-81
2023/05/29 11:13:31;;;;;;;6.43;3.72;;;20.90;66.90;;;;;;5037214;28;20415;-81
2023/05/29 11:16:08;;;;;;;6.05;4.35;;;20.90;66.80;;;;;;5036426;28;20053;-78
2023/05/29 11:18:48;;;;;;;6.72;5.82;;;21.00;66.60;;;;;;5041390;28;20533;-79
2023/05/29 11:21:46;;;;;;;15.15;9.75;;;20.90;66.60;;;;;;5029227;28;20041;-79
2023/05/29 11:24:23;;;;;;;13.68;8.27;;;20.90;66.60;;;;;;5040387;28;21601;-78
2023/05/29 11:26:50;;;;;;;11.25;6.32;;;21.00;66.70;;;;;;5041246;28;20068;-78
2023/05/29 11:29:16;;;;;;;9.27;5.68;;;20.90;66.40;;;;;;5028337;28;20049;-78
2023/05/29 11:31:42;;;;;;;6.72;4.95;;;21.00;66.70;;;;;;5046162;28;20120;-79
2023/05/29 11:34:09;;;;;;;5.85;4.60;;;21.00;66.60;;;;;;5043205;28;20123;-79
2023/05/29 11:36:36;;;;;;;6.50;4.45;;;21.00;66.80;;;;;;5042785;28;20040;-78
2023/05/29 11:39:03;;;;;;;7.10;4.40;;;21.00;66.30;;;;;;5025204;28;20053;-79
2023/05/29 11:41:29;;;;;;;6.28;4.28;;;21.10;66.20;;;;;;5045570;28;20057;-79
2023/05/29 11:44:02;;;;;;;5.20;4.22;;;21.10;66.30;;;;;;5045970;28;20045;-79
2023/05/29 11:46:30;;;;;;;5.28;4.28;;;21.10;66.30;;;;;;5027472;28;20047;-79
2023/05/29 11:48:56;;;;;;;5.55;4.15;;;21.00;66.20;;;;;;5043258;28;20160;-79
2023/05/29 11:51:22;;;;;;;5.10;4.20;;;21.10;66.40;;;;;;5044687;28;20124;-79
2023/05/29 11:53:48;;;;;;;8.07;3.70;;;21.10;66.20;;;;;;5026353;28;20507;-79
2023/05/29 11:56:13;;;;;;;5.20;3.60;;;21.10;66.30;;;;;;5043414;28;20061;-79
2023/05/29 11:58:42;;;;;;;4.60;3.47;;;21.10;66.40;;;;;;5032181;28;20044;-84
2023/05/29 12:01:08;;;;;;;3.92;3.55;;;21.10;67.10;;;;;;5054847;28;20040;-78
2023/05/29 12:03:40;;;;;;;4.32;3.90;;;21.10;66.90;;;;;;5052400;28;20425;-77
2023/05/29 12:06:06;;;;;;;6.10;3.83;;;21.10;66.70;;;;;;5060424;28;20108;-79
2023/05/29 12:08:32;;;;;;;4.72;4.07;;;21.10;66.50;;;;;;5020782;28;20109;-78
2023/05/29 12:10:57;;;;;;;5.15;4.00;;;21.20;66.80;;;;;;4705979;28;10000395;-78
2023/05/29 12:13:23;;;;;;;4.95;3.92;;;21.20;66.60;;;;;;5018573;28;20044;-78
2023/05/29 12:15:51;;;;;;;4.93;3.78;;;21.20;66.80;;;;;;5031836;28;20041;-78
2023/05/29 12:18:16;;;;;;;4.70;3.90;;;21.20;67.30;;;;;;5052619;28;20552;-78
2023/05/29 12:20:42;;;;;;;5.63;3.95;;;21.20;67.30;;;;;;5050162;28;20045;-77
2023/05/29 12:23:08;;;;;;;4.35;4.00;;;21.20;67.40;;;;;;5051819;28;20052;-77
2023/05/29 12:25:36;;;;;;;3.70;3.35;;;21.20;67.00;;;;;;5055824;28;20048;-78
2023/05/29 12:28:02;;;;;;;3.97;3.35;;;21.20;67.20;;;;;;5035751;28;20446;-78
2023/05/29 12:30:27;;;;;;;4.32;3.38;;;21.30;67.00;;;;;;5046979;28;20062;-78
2023/05/29 12:32:53;;;;;;;4.90;3.70;;;21.30;67.00;;;;;;5052450;28;20521;-78
2023/05/29 12:35:23;;;;;;;3.75;3.15;;;21.30;66.70;;;;;;5054126;28;20052;-79
2023/05/29 12:38:00;;;;;;;4.85;3.63;;;21.30;66.70;;;;;;5054658;28;20075;-78
2023/05/29 12:40:27;;;;;;;3.95;3.50;;;21.40;66.60;;;;;;5038697;28;20041;-78
2023/05/29 12:43:02;;;;;;;5.00;4.03;;;21.30;66.80;;;;;;5037643;28;20033;-78
2023/05/29 12:45:32;;;;;;;4.32;3.92;;;21.30;66.50;;;;;;5030701;28;20092;-78